Latest Weather Observations for Ivanhoe Airport

IDN60801

Issued at 5:32 pm EST Tuesday 1 September 2015 (issued every 30 minutes, with the page automatically refreshed every 10 minutes)

About weather observations | Map of weather stations | Latest weather observations for NSW | Other Formats
Station Details ID: 049000 Name: IVANHOE AERODROME AWS Lat: -32.88 Lon: 144.31 Height: 100.0 m
Data from the previous 72 hours. | See also: Recent months at Ivanhoe Airport
Date/Time
EST
Temp
°C
App
Temp
°C
Dew
Point
Rel
Hum
%
Delta-T
°C
Wind Press
QNH
hPa
Press
MSL
hPa
Rain
since 9 am
mm
Dir
 
Spd
km/h
Gust
km/h
Spd
kts
Gust
kts
01/05:30pm 17.4 14.0 1.8 35 7.0 N 9 11 5 6 1013.7 1013.6 0.2
01/05:00pm 18.0 14.5 1.1 32 7.5 N 9 13 5 7 1013.6 1013.5 0.2
01/04:30pm 18.1 16.2 2.8 36 7.1 NW 2 9 1 5 1013.6 1013.5 0.2
01/04:00pm 18.7 16.4 2.5 34 7.5 WNW 4 11 2 6 1013.7 1013.6 0.2
01/03:30pm 19.1 15.4 2.5 33 7.7 N 11 15 6 8 1014.3 1014.2 0.2
01/03:00pm 18.8 14.3 2.2 33 7.6 N 15 20 8 11 1014.5 1014.4 0.2
01/02:30pm 18.6 14.8 2.0 33 7.6 N 11 19 6 10 1014.7 1014.6 0.2
01/02:00pm 18.9 15.2 2.3 33 7.6 NE 11 17 6 9 1014.8 1014.7 0.2
01/01:30pm 19.1 15.0 2.0 32 7.8 NNE 13 20 7 11 1015.4 1015.3 0.2
01/01:00pm 18.6 14.9 2.4 34 7.5 NNE 11 20 6 11 1015.9 1015.8 0.2
01/12:30pm 19.1 16.4 2.5 33 7.7 NNW 6 13 3 7 1016.3 1016.2 0.2
01/12:00pm 18.4 15.1 2.3 34 7.4 WNW 9 13 5 7 1016.8 1016.6 0.2
01/11:30am 18.0 14.7 2.3 35 7.2 WNW 9 15 5 8 1017.2 1017.0 0.2
01/11:00am 17.7 14.1 3.2 38 6.7 N 11 15 6 8 1017.4 1017.2 0.0
01/10:30am 16.9 13.5 3.9 42 6.1 NNW 11 17 6 9 1017.7 1017.5 0.0
01/10:00am 15.6 11.9 4.6 48 5.2 NNW 13 19 7 10 1018.0 1017.9 0.0
01/09:30am 14.3 10.7 5.1 54 4.3 N 13 17 7 9 1018.1 1018.1 0.0
01/09:00am 12.4 8.4 5.1 61 3.4 NNW 15 24 8 13 1018.0 1018.0 0.0
01/08:30am 10.5 7.3 5.3 70 2.4 NNW 11 17 6 9 1017.9 1017.9 0.0
01/08:00am 8.3 4.7 4.9 79 1.5 N 13 17 7 9 1017.8 1017.8 0.0
01/07:30am 5.3 1.5 4.1 92 0.5 N 13 17 7 9 1017.9 1017.9 0.0
01/07:00am 3.5 -0.5 2.6 94 0.4 NNE 13 15 7 8 1017.7 1017.7 0.0
01/06:30am 3.3 -1.2 2.4 94 0.4 NNE 15 15 8 8 1017.4 1017.4 0.0
01/06:00am 3.4 -0.7 2.2 92 0.5 NNE 13 15 7 8 1017.2 1017.2 0.0
01/05:30am 3.9 -0.1 2.6 91 0.5 NNE 13 15 7 8 1017.2 1017.2 0.0
01/05:00am 4.6 1.0 3.1 90 0.6 NNE 11 13 6 7 1016.9 1016.9 0.0
01/04:30am 4.5 0.5 2.8 89 0.7 NNE 13 13 7 7 1016.9 1016.9 0.0
01/04:00am 4.7 1.1 2.9 88 0.7 NE 11 13 6 7 1016.9 1016.9 0.0
01/03:30am 5.4 1.9 3.3 86 0.9 NE 11 11 6 6 1017.1 1017.1 0.0
01/03:00am 5.1 1.8 2.6 84 1.0 NE 9 11 5 6 1017.4 1017.4 0.0
01/02:30am 5.9 2.3 3.2 83 1.1 NNE 11 13 6 7 1017.6 1017.6 0.0
01/02:00am 6.2 2.3 3.4 82 1.2 NNE 13 13 7 7 1017.7 1017.7 0.0
01/01:30am 6.6 3.0 3.2 79 1.4 N 11 13 6 7 1018.1 1018.1 0.0
01/01:00am 7.1 3.6 3.5 78 1.5 NNE 11 13 6 7 1018.3 1018.3 0.0
01/12:30am 7.6 4.5 3.6 76 1.7 NNE 9 11 5 6 1018.3 1018.3 0.0
01/12:00am 8.0 4.6 3.8 75 1.8 N 11 13 6 7 1018.6 1018.6 0.0
 
Date/Time
EST
Temp
°C
App
Temp
°C
Dew
Point
Rel
Hum
%
Delta-T
°C
Wind Press
QNH
hPa
Press
MSL
hPa
Rain
since 9 am
mm
Dir
 
Spd
km/h
Gust
km/h
Spd
kts
Gust
kts
31/11:30pm 7.8 4.3 3.7 75 1.8 N 11 11 6 6 1018.6 1018.6 0.0
31/11:00pm 8.5 5.1 3.9 73 2.0 N 11 13 6 7 1018.7 1018.7 0.0
31/10:30pm 8.8 5.8 4.0 72 2.1 NE 9 9 5 5 1018.9 1018.9 0.0
31/10:00pm 9.3 6.3 4.3 71 2.2 ENE 9 9 5 5 1018.8 1018.8 0.0
31/09:30pm 9.1 6.1 4.3 72 2.1 NE 9 11 5 6 1019.0 1019.0 0.0
31/09:00pm 9.4 6.5 4.4 71 2.2 NE 9 9 5 5 1019.0 1019.0 0.0
31/08:30pm 10.3 7.7 4.2 66 2.7 ENE 7 9 4 5 1018.9 1018.9 0.0
31/08:00pm 10.4 8.7 4.1 65 2.8 WSW 2 7 1 4 1018.7 1018.7 0.0
31/07:30pm 10.8 9.5 4.0 63 3.0 CALM 0 0 0 0 1018.5 1018.5 0.0
31/07:00pm 11.6 9.2 4.3 61 3.3 S 6 7 3 4 1018.4 1018.4 0.0
31/06:30pm 12.8 10.4 4.3 56 3.9 S 6 9 3 5 1018.2 1018.2 0.0
31/06:00pm 14.3 11.6 3.7 49 4.8 SSW 7 7 4 4 1018.1 1018.1 0.0
31/05:30pm 15.6 12.1 3.4 44 5.6 SW 11 15 6 8 1018.0 1018.0 0.0
31/05:00pm 16.1 12.5 2.9 41 6.0 WSW 11 15 6 8 1018.0 1018.0 0.0
31/04:30pm 16.3 12.9 4.0 44 5.7 S 11 20 6 11 1018.0 1018.0 0.0
31/04:00pm 16.7 13.8 4.4 44 5.8 SSW 9 17 5 9 1018.1 1018.1 0.0
31/03:30pm 16.4 12.3 4.4 45 5.7 SSW 15 26 8 14 1018.1 1018.1 0.0
31/03:00pm 16.5 13.3 4.9 46 5.5 SW 11 20 6 11 1018.3 1018.3 0.0
31/02:30pm 16.2 12.5 4.6 46 5.5 SW 13 17 7 9 1018.7 1018.7 0.0
31/02:00pm 16.1 12.3 3.9 44 5.7 SW 13 24 7 13 1019.1 1019.1 0.0
31/01:30pm 15.7 11.7 4.7 48 5.2 SSW 15 22 8 12 1019.6 1019.6 0.0
31/01:00pm 15.6 12.3 4.6 48 5.2 SSW 11 20 6 11 1020.1 1020.1 0.0
31/12:30pm 15.4 12.0 6.1 54 4.5 SW 13 20 7 11 1020.6 1020.6 0.0
31/12:00pm 15.1 11.5 6.7 57 4.1 SSW 15 22 8 12 1021.0 1021.0 0.0
31/11:30am 13.7 10.0 6.1 60 3.6 SW 15 24 8 13 1021.4 1021.4 0.0
31/11:00am 13.3 11.3 6.9 65 3.1 WSW 7 15 4 8 1021.7 1021.7 0.0
31/10:30am 12.6 9.7 6.4 66 3.0 WSW 11 17 6 9 1021.8 1021.8 0.0
31/10:00am 11.8 8.8 6.1 68 2.7 WSW 11 15 6 8 1022.0 1022.1 0.0
31/09:30am 11.0 8.4 6.0 71 2.3 SW 9 11 5 6 1022.1 1022.2 0.0
31/09:00am 10.0 7.4 6.3 78 1.7 WSW 9 11 5 6 1021.9 1022.0 0.0
31/08:30am 8.1 5.7 6.9 92 0.6 WSW 9 11 5 6 1021.8 1021.8 0.0
31/08:00am 6.1 3.9 6.0 99 0.0 WSW 7 11 4 6 1021.3 1021.3 0.0
31/07:30am 4.7 2.2 4.6 99 0.0 WSW 7 11 4 6 1021.0 1021.0 0.0
31/07:00am 3.6 0.1 3.5 99 0.0 SW 11 11 6 6 1020.6 1020.6 0.0
31/06:30am 3.7 0.6 3.6 99 0.0 WSW 9 11 5 6 1020.5 1020.5 0.0
31/06:00am 3.7 0.6 3.6 99 0.0 WSW 9 9 5 5 1020.3 1020.3 0.0
31/05:30am 4.4 1.8 4.3 99 0.0 WSW 7 9 4 5 1020.2 1020.2 0.0
31/05:00am 4.5 1.6 4.4 99 0.0 W 9 9 5 5 1020.1 1020.1 0.0
31/04:30am 3.8 0.3 3.7 99 0.0 SW 11 11 6 6 1020.5 1020.5 0.0
31/04:00am 3.9 0.8 3.8 99 0.0 SSE 9 9 5 5 1020.5 1020.5 0.0
31/03:30am 3.9 1.2 3.8 99 0.0 SSE 7 7 4 4 1020.9 1020.9 0.0
31/03:00am 4.5 1.6 4.4 99 0.0 SSE 9 11 5 6 1021.0 1021.0 0.0
31/02:30am 4.4 1.4 4.1 98 0.1 SSE 9 9 5 5 1021.3 1021.3 0.0
31/02:00am 4.9 2.6 4.8 99 0.0 SSE 6 7 3 4 1021.5 1021.5 0.0
31/01:30am 5.1 2.8 5.0 99 0.0 SSE 6 6 3 3 1021.8 1021.8 0.0
31/01:00am 5.1 3.9 4.8 98 0.1 CALM 0 0 0 0 1021.8 1021.8 0.0
31/12:30am 5.2 4.0 4.8 97 0.2 CALM 0 0 0 0 1021.9 1022.0 0.0
31/12:00am 5.3 4.1 4.4 94 0.4 CALM 0 0 0 0 1022.0 1022.1 0.0
 
Date/Time
EST
Temp
°C
App
Temp
°C
Dew
Point
Rel
Hum
%
Delta-T
°C
Wind Press
QNH
hPa
Press
MSL
hPa
Rain
since 9 am
mm
Dir
 
Spd
km/h
Gust
km/h
Spd
kts
Gust
kts
30/11:30pm 5.7 4.4 4.3 91 0.6 CALM 0 0 0 0 1022.0 1022.1 0.0
30/11:00pm 6.3 3.9 4.5 88 0.8 SSE 6 7 3 4 1022.1 1022.2 0.0
30/10:30pm 7.1 4.5 4.4 83 1.2 SSE 7 9 4 5 1022.3 1022.4 0.0
30/10:00pm 8.2 5.4 5.1 81 1.4 SSE 9 11 5 6 1022.5 1022.6 0.0
30/09:30pm 8.5 5.7 5.3 80 1.4 SE 9 9 5 5 1022.6 1022.7 0.0
30/09:00pm 8.5 6.1 5.4 81 1.4 SE 7 7 4 4 1022.4 1022.5 0.0
30/08:30pm 8.7 6.5 5.1 78 1.6 SE 6 7 3 4 1022.2 1022.3 0.0
30/08:00pm 9.7 7.3 5.3 74 2.0 SSE 7 9 4 5 1022.0 1022.1 0.0
30/07:30pm 9.9 6.7 5.3 73 2.1 SSE 11 13 6 7 1021.9 1022.0 0.0
30/07:00pm 10.2 7.9 4.8 69 2.4 SSE 6 7 3 4 1021.8 1021.8 0.0
30/06:30pm 11.4 9.0 5.1 65 2.9 S 7 11 4 6 1021.6 1021.6 0.0
30/06:00pm 12.7 9.5 5.1 60 3.5 S 11 15 6 8 1021.4 1021.4 0.0
30/05:30pm 13.9 10.4 5.3 56 4.1 S 13 19 7 10 1021.4 1021.4 0.0
30/05:00pm 14.6 9.9 5.1 53 4.5 SSW 19 26 10 14 1021.2 1021.2 0.0
30/04:30pm 14.8 10.5 5.1 52 4.6 SSW 17 24 9 13 1021.3 1021.3 0.0
30/04:00pm 14.2 9.8 5.0 54 4.3 SSW 17 26 9 14 1021.5 1021.5 0.0
30/03:30pm 14.5 9.8 5.3 54 4.4 SSW 19 24 10 13 1021.7 1021.7 0.0
30/03:00pm 14.5 10.2 5.3 54 4.3 SSW 17 26 9 14 1022.0 1022.1 0.0
30/02:30pm 15.2 10.7 6.2 55 4.4 SSW 19 30 10 16 1022.2 1022.3 0.0
30/02:00pm 14.4 9.8 5.7 56 4.1 SSW 19 26 10 14 1022.3 1022.4 0.0
30/01:30pm 13.6 9.0 5.7 59 3.7 SSW 19 24 10 13 1022.6 1022.7 0.0
30/01:00pm 13.3 9.0 5.2 58 3.8 SSW 17 24 9 13 1023.1 1023.2 0.0
30/12:30pm 13.2 8.6 5.4 59 3.7 SSW 19 26 10 14 1023.6 1023.7 0.0
30/12:00pm 13.6 9.4 5.7 59 3.7 S 17 26 9 14 1024.0 1024.1 0.0
30/11:30am 12.7 8.2 6.1 64 3.1 SSW 19 28 10 15 1024.4 1024.5 0.0
30/11:00am 12.4 8.4 6.5 67 2.8 SSW 17 26 9 14 1024.8 1024.9 0.0
30/10:30am 11.8 7.8 6.5 70 2.5 SSW 17 28 9 15 1025.0 1025.1 0.0
30/10:00am 11.2 7.7 7.1 76 2.0 S 15 22 8 12 1025.1 1025.2 0.0
30/09:30am 9.8 6.1 6.5 80 1.5 S 15 26 8 14 1025.0 1025.1 0.0
30/09:00am 8.3 4.5 5.8 84 1.1 SSW 15 20 8 11 1025.1 1025.2 0.2
30/08:30am 6.3 2.6 4.3 87 0.9 SSW 13 17 7 9 1024.9 1025.0 0.2
30/08:00am 4.3 0.7 2.7 89 0.6 SW 11 15 6 8 1024.8 1024.9 0.2
30/07:30am 2.8 -0.6 1.9 94 0.4 SW 9 11 5 6 1024.6 1024.7 0.2
30/07:00am 1.7 -2.2 1.0 95 0.3 SW 11 11 6 6 1024.4 1024.5 0.2
30/06:30am 1.5 -2.1 0.8 95 0.3 SW 9 11 5 6 1024.0 1024.1 0.2
30/06:00am 1.8 -1.8 0.9 94 0.3 SW 9 11 5 6 1023.9 1024.0 0.2
30/05:30am 2.1 -1.4 1.1 93 0.4 SW 9 11 5 6 1023.9 1024.0 0.2
30/05:00am 2.2 -1.3 1.2 93 0.4 SW 9 11 5 6 1024.0 1024.1 0.2
30/04:30am 2.5 -1.4 1.3 92 0.5 SW 11 13 6 7 1023.8 1023.9 0.2
30/04:00am 2.6 -1.2 1.6 93 0.4 WSW 11 13 6 7 1023.8 1023.9 0.2
30/03:30am 2.9 -0.9 2.0 94 0.4 WSW 11 13 6 7 1023.9 1024.0 0.2
30/03:00am 3.3 0.0 2.6 95 0.3 WSW 9 11 5 6 1024.1 1024.2 0.2
30/02:30am 3.1 -0.2 2.4 95 0.3 WSW 9 9 5 5 1024.4 1024.5 0.2
30/02:00am 3.4 0.1 2.5 94 0.4 SW 9 9 5 5 1024.8 1024.9 0.2
30/01:30am 3.8 0.6 2.9 94 0.4 SW 9 11 5 6 1025.1 1025.2 0.2
30/01:00am 3.7 0.8 2.8 94 0.4 SSW 7 9 4 5 1025.3 1025.4 0.2
30/12:30am 4.0 1.2 3.0 93 0.4 S 7 9 4 5 1025.5 1025.6 0.2
30/12:00am 4.2 2.3 2.9 91 0.5 S 2 9 1 5 1025.4 1025.5 0.2
 
Date/Time
EST
Temp
°C
App
Temp
°C
Dew
Point
Rel
Hum
%
Delta-T
°C
Wind Press
QNH
hPa
Press
MSL
hPa
Rain
since 9 am
mm
Dir
 
Spd
km/h
Gust
km/h
Spd
kts
Gust
kts
29/11:30pm 5.1 2.5 3.1 87 0.8 S 6 6 3 3 1025.5 1025.6 0.2
29/11:00pm 5.5 2.7 3.0 84 1.0 SSE 7 9 4 5 1025.5 1025.6 0.2
29/10:30pm 6.4 3.3 3.4 81 1.3 SSE 9 9 5 5 1025.7 1025.8 0.2
29/10:00pm 7.0 3.9 3.6 79 1.4 SSE 9 11 5 6 1025.7 1025.8 0.2
29/09:30pm 7.5 4.0 3.7 77 1.6 SSE 11 13 6 7 1025.7 1025.8 0.2
29/09:00pm 8.1 4.3 4.1 76 1.7 SSE 13 15 7 8 1025.5 1025.6 0.2
29/08:30pm 8.2 5.6 4.2 76 1.8 S 7 9 4 5 1025.2 1025.3 0.2
29/08:00pm 8.8 5.9 4.6 75 1.9 S 9 11 5 6 1024.8 1024.9 0.2
29/07:30pm 9.4 6.6 5.2 75 1.9 S 9 11 5 6 1024.7 1024.8 0.2
29/07:00pm 9.8 7.0 5.2 73 2.1 SSW 9 13 5 7 1024.6 1024.7 0.2
29/06:30pm 10.7 7.5 5.0 68 2.6 SSW 11 15 6 8 1024.4 1024.5 0.2
29/06:00pm 12.0 8.0 5.0 62 3.2 S 15 20 8 11 1024.1 1024.2 0.2

Other Formats:

Comma delimited format used in spreadsheet applications
http://www.bom.gov.au/fwo/IDN60801/IDN60801.95697.axf

JavaScript Object Notation format (JSON) in row-major order
http://www.bom.gov.au/fwo/IDN60801/IDN60801.95697.json